sensor_id;sensor_type;location;lat;lon;timestamp;pressure;altitude;pressure_sealevel;temperature;humidity
67840;BME280;54636;51.684;5.142;2023-02-28T00:00:25;103164.31;;;-0.96;100.00
67840;BME280;54636;51.684;5.142;2023-02-28T00:02:51;103168.72;;;-1.04;100.00
67840;BME280;54636;51.684;5.142;2023-02-28T00:05:19;103160.28;;;-1.06;100.00
67840;BME280;54636;51.684;5.142;2023-02-28T00:07:45;103167.16;;;-1.05;100.00
67840;BME280;54636;51.684;5.142;2023-02-28T00:10:14;103163.72;;;-1.06;100.00
67840;BME280;54636;51.684;5.142;2023-02-28T00:12:40;103164.41;;;-1.09;100.00
67840;BME280;54636;51.684;5.142;2023-02-28T00:15:08;103165.75;;;-1.15;100.00
67840;BME280;54636;51.684;5.142;2023-02-28T00:17:34;103168.69;;;-1.20;100.00
67840;BME280;54636;51.684;5.142;2023-02-28T00:19:59;103144.03;;;-1.45;100.00
67840;BME280;54636;51.684;5.142;2023-02-28T00:22:45;103173.22;;;-1.36;100.00
67840;BME280;54636;51.684;5.142;2023-02-28T00:25:12;103165.38;;;-1.45;100.00
67840;BME280;54636;51.684;5.142;2023-02-28T00:27:39;103162.41;;;-1.55;100.00
67840;BME280;54636;51.684;5.142;2023-02-28T00:30:06;103166.97;;;-1.56;100.00
67840;BME280;54636;51.684;5.142;2023-02-28T00:32:33;103162.31;;;-1.59;100.00
67840;BME280;54636;51.684;5.142;2023-02-28T00:34:59;103161.88;;;-1.61;100.00
67840;BME280;54636;51.684;5.142;2023-02-28T00:37:25;103168.66;;;-1.63;100.00
67840;BME280;54636;51.684;5.142;2023-02-28T00:39:50;103169.09;;;-1.61;100.00
67840;BME280;54636;51.684;5.142;2023-02-28T00:42:16;103165.19;;;-1.52;100.00
67840;BME280;54636;51.684;5.142;2023-02-28T00:44:41;103167.22;;;-1.33;100.00
67840;BME280;54636;51.684;5.142;2023-02-28T00:47:07;103161.13;;;-1.18;100.00
67840;BME280;54636;51.684;5.142;2023-02-28T00:49:32;103162.16;;;-1.07;100.00
67840;BME280;54636;51.684;5.142;2023-02-28T00:51:58;103159.78;;;-0.96;100.00
67840;BME280;54636;51.684;5.142;2023-02-28T00:54:23;103153.06;;;-0.90;100.00
67840;BME280;54636;51.684;5.142;2023-02-28T00:56:49;103160.81;;;-0.85;100.00
67840;BME280;54636;51.684;5.142;2023-02-28T00:59:16;103154.88;;;-0.78;100.00
67840;BME280;54636;51.684;5.142;2023-02-28T01:01:42;103157.72;;;-0.71;100.00
67840;BME280;54636;51.684;5.142;2023-02-28T01:04:09;103161.72;;;-0.61;100.00
67840;BME280;54636;51.684;5.142;2023-02-28T01:06:34;103158.72;;;-0.60;100.00
67840;BME280;54636;51.684;5.142;2023-02-28T01:09:01;103168.88;;;-0.50;100.00
67840;BME280;54636;51.684;5.142;2023-02-28T01:11:26;103169.72;;;-0.46;100.00
67840;BME280;54636;51.684;5.142;2023-02-28T01:13:52;103165.59;;;-0.43;100.00
67840;BME280;54636;51.684;5.142;2023-02-28T01:16:18;103170.66;;;-0.38;100.00
67840;BME280;54636;51.684;5.142;2023-02-28T01:18:43;103169.63;;;-0.34;100.00
67840;BME280;54636;51.684;5.142;2023-02-28T01:21:12;103159.38;;;-0.31;100.00
67840;BME280;54636;51.684;5.142;2023-02-28T01:23:38;103159.81;;;-0.29;100.00
67840;BME280;54636;51.684;5.142;2023-02-28T01:26:18;103162.91;;;-0.27;100.00
67840;BME280;54636;51.684;5.142;2023-02-28T01:28:44;103168.66;;;-0.25;100.00
67840;BME280;54636;51.684;5.142;2023-02-28T01:31:10;103164.44;;;-0.26;100.00
67840;BME280;54636;51.684;5.142;2023-02-28T01:33:36;103158.69;;;-0.28;100.00
67840;BME280;54636;51.684;5.142;2023-02-28T01:36:04;103163.94;;;-0.32;100.00
67840;BME280;54636;51.684;5.142;2023-02-28T01:38:30;103172.66;;;-0.35;100.00
67840;BME280;54636;51.684;5.142;2023-02-28T01:40:56;103168.50;;;-0.32;100.00
67840;BME280;54636;51.684;5.142;2023-02-28T01:45:46;103171.00;;;-0.24;100.00
67840;BME280;54636;51.684;5.142;2023-02-28T01:48:12;103178.31;;;-0.21;100.00
67840;BME280;54636;51.684;5.142;2023-02-28T01:50:41;103168.47;;;-0.17;100.00
67840;BME280;54636;51.684;5.142;2023-02-28T01:53:13;103166.66;;;-0.13;100.00
67840;BME280;54636;51.684;5.142;2023-02-28T01:55:40;103165.97;;;-0.10;100.00
67840;BME280;54636;51.684;5.142;2023-02-28T01:58:07;103163.28;;;-0.10;100.00
67840;BME280;54636;51.684;5.142;2023-02-28T02:00:34;103153.88;;;-0.04;100.00
67840;BME280;54636;51.684;5.142;2023-02-28T02:03:06;103165.41;;;0.00;100.00
67840;BME280;54636;51.684;5.142;2023-02-28T02:05:36;103157.03;;;0.02;100.00
67840;BME280;54636;51.684;5.142;2023-02-28T02:08:06;103159.78;;;0.06;100.00
67840;BME280;54636;51.684;5.142;2023-02-28T02:10:46;103155.97;;;0.07;100.00
67840;BME280;54636;51.684;5.142;2023-02-28T02:18:33;103156.56;;;0.16;100.00
67840;BME280;54636;51.684;5.142;2023-02-28T02:37:57;103143.47;;;0.30;100.00
67840;BME280;54636;51.684;5.142;2023-02-28T02:40:28;103151.16;;;0.31;100.00
67840;BME280;54636;51.684;5.142;2023-02-28T02:43:02;103142.34;;;0.31;100.00
67840;BME280;54636;51.684;5.142;2023-02-28T02:45:59;103149.66;;;0.34;100.00
67840;BME280;54636;51.684;5.142;2023-02-28T02:48:30;103152.34;;;0.34;100.00
67840;BME280;54636;51.684;5.142;2023-02-28T02:51:01;103148.19;;;0.37;100.00
67840;BME280;54636;51.684;5.142;2023-02-28T02:53:36;103135.59;;;0.37;100.00
67840;BME280;54636;51.684;5.142;2023-02-28T02:56:03;103144.75;;;0.36;100.00
67840;BME280;54636;51.684;5.142;2023-02-28T02:58:35;103146.38;;;0.41;100.00
67840;BME280;54636;51.684;5.142;2023-02-28T03:01:08;103137.56;;;0.40;100.00
67840;BME280;54636;51.684;5.142;2023-02-28T03:03:35;103145.66;;;0.44;100.00
67840;BME280;54636;51.684;5.142;2023-02-28T03:06:01;103150.31;;;0.47;100.00
67840;BME280;54636;51.684;5.142;2023-02-28T03:08:30;103147.28;;;0.48;100.00
67840;BME280;54636;51.684;5.142;2023-02-28T03:11:00;103156.84;;;0.49;100.00
67840;BME280;54636;51.684;5.142;2023-02-28T03:24:50;103142.41;;;0.54;100.00
67840;BME280;54636;51.684;5.142;2023-02-28T03:27:35;103149.31;;;0.55;100.00
67840;BME280;54636;51.684;5.142;2023-02-28T03:30:03;103142.06;;;0.55;100.00
67840;BME280;54636;51.684;5.142;2023-02-28T03:32:36;103141.72;;;0.57;100.00
67840;BME280;54636;51.684;5.142;2023-02-28T03:35:26;103138.25;;;0.56;100.00
67840;BME280;54636;51.684;5.142;2023-02-28T03:37:59;103140.59;;;0.58;100.00
67840;BME280;54636;51.684;5.142;2023-02-28T03:40:28;103147.47;;;0.59;100.00
67840;BME280;54636;51.684;5.142;2023-02-28T03:43:01;103142.91;;;0.59;100.00
67840;BME280;54636;51.684;5.142;2023-02-28T03:45:29;103150.56;;;0.61;100.00
67840;BME280;54636;51.684;5.142;2023-02-28T03:48:01;103160.16;;;0.62;100.00
67840;BME280;54636;51.684;5.142;2023-02-28T03:50:34;103155.56;;;0.62;100.00
67840;BME280;54636;51.684;5.142;2023-02-28T03:53:08;103152.13;;;0.62;100.00
67840;BME280;54636;51.684;5.142;2023-02-28T03:55:40;103155.59;;;0.66;100.00
67840;BME280;54636;51.684;5.142;2023-02-28T04:00:56;103159.81;;;0.67;100.00
67840;BME280;54636;51.684;5.142;2023-02-28T04:03:24;103147.97;;;0.64;100.00
67840;BME280;54636;51.684;5.142;2023-02-28T04:05:52;103160.25;;;0.69;100.00
67840;BME280;54636;51.684;5.142;2023-02-28T04:08:18;103151.41;;;0.65;100.00
67840;BME280;54636;51.684;5.142;2023-02-28T04:10:50;103149.13;;;0.67;100.00
67840;BME280;54636;51.684;5.142;2023-02-28T04:13:18;103154.47;;;0.67;100.00
67840;BME280;54636;51.684;5.142;2023-02-28T04:15:43;103149.47;;;0.65;100.00
67840;BME280;54636;51.684;5.142;2023-02-28T04:18:08;103146.44;;;0.67;100.00
67840;BME280;54636;51.684;5.142;2023-02-28T04:20:34;103161.38;;;0.68;100.00
67840;BME280;54636;51.684;5.142;2023-02-28T04:22:59;103150.25;;;0.66;100.00
67840;BME280;54636;51.684;5.142;2023-02-28T04:25:24;103159.06;;;0.66;100.00
67840;BME280;54636;51.684;5.142;2023-02-28T04:27:50;103142.19;;;0.62;100.00
67840;BME280;54636;51.684;5.142;2023-02-28T04:30:15;103151.81;;;0.67;100.00
67840;BME280;54636;51.684;5.142;2023-02-28T04:32:41;103155.25;;;0.68;100.00
67840;BME280;54636;51.684;5.142;2023-02-28T04:35:07;103164.03;;;0.68;100.00
67840;BME280;54636;51.684;5.142;2023-02-28T04:37:32;103156.81;;;0.69;100.00
67840;BME280;54636;51.684;5.142;2023-02-28T04:40:01;103151.00;;;0.63;100.00
67840;BME280;54636;51.684;5.142;2023-02-28T04:42:26;103156.03;;;0.68;100.00
67840;BME280;54636;51.684;5.142;2023-02-28T04:44:52;103160.66;;;0.71;100.00
67840;BME280;54636;51.684;5.142;2023-02-28T04:47:17;103168.34;;;0.73;100.00
67840;BME280;54636;51.684;5.142;2023-02-28T04:49:43;103166.44;;;0.73;100.00
67840;BME280;54636;51.684;5.142;2023-02-28T04:52:08;103154.97;;;0.73;100.00
67840;BME280;54636;51.684;5.142;2023-02-28T04:54:35;103164.94;;;0.76;100.00
67840;BME280;54636;51.684;5.142;2023-02-28T04:57:00;103154.09;;;0.65;99.85
67840;BME280;54636;51.684;5.142;2023-02-28T04:59:26;103179.53;;;0.78;99.74
67840;BME280;54636;51.684;5.142;2023-02-28T05:01:52;103173.81;;;0.80;99.19
67840;BME280;54636;51.684;5.142;2023-02-28T05:04:17;103168.34;;;0.73;99.09
67840;BME280;54636;51.684;5.142;2023-02-28T05:06:43;103176.56;;;0.83;98.82
67840;BME280;54636;51.684;5.142;2023-02-28T05:09:09;103176.56;;;0.83;99.23
67840;BME280;54636;51.684;5.142;2023-02-28T05:11:36;103189.59;;;0.85;98.75
67840;BME280;54636;51.684;5.142;2023-02-28T05:14:05;103186.13;;;0.84;98.59
67840;BME280;54636;51.684;5.142;2023-02-28T05:16:31;103192.25;;;0.85;99.45
67840;BME280;54636;51.684;5.142;2023-02-28T05:18:57;103180.78;;;0.84;98.94
67840;BME280;54636;51.684;5.142;2023-02-28T05:23:53;103191.47;;;0.84;98.32
67840;BME280;54636;51.684;5.142;2023-02-28T05:26:19;103182.69;;;0.84;98.12
67840;BME280;54636;51.684;5.142;2023-02-28T05:28:44;103181.50;;;0.81;97.97
67840;BME280;54636;51.684;5.142;2023-02-28T05:31:13;103157.16;;;0.67;97.71
67840;BME280;54636;51.684;5.142;2023-02-28T05:33:38;103196.13;;;0.87;97.18
67840;BME280;54636;51.684;5.142;2023-02-28T05:36:05;103186.19;;;0.88;96.48
67840;BME280;54636;51.684;5.142;2023-02-28T05:38:30;103189.28;;;0.90;95.83
67840;BME280;54636;51.684;5.142;2023-02-28T05:40:56;103187.38;;;0.90;95.32
67840;BME280;54636;51.684;5.142;2023-02-28T05:43:22;103187.75;;;0.89;95.33
67840;BME280;54636;51.684;5.142;2023-02-28T05:45:47;103191.19;;;0.89;95.12
67840;BME280;54636;51.684;5.142;2023-02-28T05:48:13;103180.56;;;0.93;95.11
67840;BME280;54636;51.684;5.142;2023-02-28T05:50:38;103184.28;;;0.88;95.88
67840;BME280;54636;51.684;5.142;2023-02-28T05:53:04;103179.00;;;0.92;96.09
67840;BME280;54636;51.684;5.142;2023-02-28T05:55:29;103175.91;;;0.90;96.53
67840;BME280;54636;51.684;5.142;2023-02-28T05:57:54;103188.94;;;0.91;95.75
67840;BME280;54636;51.684;5.142;2023-02-28T06:00:21;103177.81;;;0.89;95.78
67840;BME280;54636;51.684;5.142;2023-02-28T06:02:47;103183.09;;;0.86;95.88
67840;BME280;54636;51.684;5.142;2023-02-28T06:05:17;103184.28;;;0.88;96.67
67840;BME280;54636;51.684;5.142;2023-02-28T06:07:43;103183.94;;;0.90;96.58
67840;BME280;54636;51.684;5.142;2023-02-28T06:10:10;103190.41;;;0.89;96.43
67840;BME280;54636;51.684;5.142;2023-02-28T06:12:36;103172.81;;;0.88;95.81
67840;BME280;54636;51.684;5.142;2023-02-28T06:15:02;103164.78;;;0.88;96.68
67840;BME280;54636;51.684;5.142;2023-02-28T06:17:27;103178.16;;;0.88;96.42
67840;BME280;54636;51.684;5.142;2023-02-28T06:19:53;103180.78;;;0.84;95.86
67840;BME280;54636;51.684;5.142;2023-02-28T06:22:18;103187.31;;;0.87;96.00
67840;BME280;54636;51.684;5.142;2023-02-28T06:24:43;103181.97;;;0.87;95.64
67840;BME280;54636;51.684;5.142;2023-02-28T06:27:09;103184.94;;;0.82;96.34
67840;BME280;54636;51.684;5.142;2023-02-28T06:29:35;103189.66;;;0.88;96.12
67840;BME280;54636;51.684;5.142;2023-02-28T06:32:01;103186.63;;;0.90;96.19
67840;BME280;54636;51.684;5.142;2023-02-28T06:34:27;103187.03;;;0.92;96.66
67840;BME280;54636;51.684;5.142;2023-02-28T06:36:52;103190.47;;;0.92;96.14
67840;BME280;54636;51.684;5.142;2023-02-28T06:39:18;103180.56;;;0.93;95.69
67840;BME280;54636;51.684;5.142;2023-02-28T06:41:43;103173.31;;;0.93;95.40
67840;BME280;54636;51.684;5.142;2023-02-28T06:44:12;103172.59;;;0.96;95.53
67840;BME280;54636;51.684;5.142;2023-02-28T06:46:40;103181.03;;;0.98;96.17
67840;BME280;54636;51.684;5.142;2023-02-28T06:49:06;103187.94;;;0.99;96.04
67840;BME280;54636;51.684;5.142;2023-02-28T06:51:34;103188.78;;;1.04;95.57
67840;BME280;54636;51.684;5.142;2023-02-28T06:53:59;103175.38;;;1.04;95.74
67840;BME280;54636;51.684;5.142;2023-02-28T06:56:25;103180.75;;;1.04;95.37
67840;BME280;54636;51.684;5.142;2023-02-28T06:58:50;103182.34;;;1.08;95.36
67840;BME280;54636;51.684;5.142;2023-02-28T07:01:18;103186.22;;;1.11;95.65
67840;BME280;54636;51.684;5.142;2023-02-28T07:03:44;103204.25;;;1.14;95.36
67840;BME280;54636;51.684;5.142;2023-02-28T07:06:10;103194.72;;;1.16;95.72
67840;BME280;54636;51.684;5.142;2023-02-28T07:08:36;103202.03;;;1.19;96.00
67840;BME280;54636;51.684;5.142;2023-02-28T07:11:02;103209.00;;;1.24;95.18
67840;BME280;54636;51.684;5.142;2023-02-28T07:13:28;103206.41;;;1.27;94.35
67840;BME280;54636;51.684;5.142;2023-02-28T07:15:55;103204.53;;;1.31;93.91
67840;BME280;54636;51.684;5.142;2023-02-28T07:18:21;103206.13;;;1.36;93.30
67840;BME280;54636;51.684;5.142;2023-02-28T07:20:46;103213.09;;;1.41;93.65
67840;BME280;54636;51.684;5.142;2023-02-28T07:23:12;103214.69;;;1.45;94.16
67840;BME280;54636;51.684;5.142;2023-02-28T07:25:37;103213.25;;;1.51;94.24
67840;BME280;54636;51.684;5.142;2023-02-28T07:28:02;103224.03;;;1.55;93.73
67840;BME280;54636;51.684;5.142;2023-02-28T07:30:28;103220.63;;;1.58;92.81
67840;BME280;54636;51.684;5.142;2023-02-28T07:32:53;103223.78;;;1.63;92.54
67840;BME280;54636;51.684;5.142;2023-02-28T07:35:21;103220.03;;;1.68;91.78
67840;BME280;54636;51.684;5.142;2023-02-28T07:37:47;103223.94;;;1.74;91.48
67840;BME280;54636;51.684;5.142;2023-02-28T07:40:13;103227.47;;;1.78;91.56
67840;BME280;54636;51.684;5.142;2023-02-28T07:42:39;103226.75;;;1.81;90.34
67840;BME280;54636;51.684;5.142;2023-02-28T07:45:09;103218.03;;;1.88;90.66
67840;BME280;54636;51.684;5.142;2023-02-28T07:47:40;103218.09;;;1.91;90.13
67840;BME280;54636;51.684;5.142;2023-02-28T07:50:08;103221.25;;;2.01;89.64
67840;BME280;54636;51.684;5.142;2023-02-28T07:52:34;103233.63;;;2.09;89.13
67840;BME280;54636;51.684;5.142;2023-02-28T07:54:59;103227.16;;;2.13;89.22
67840;BME280;54636;51.684;5.142;2023-02-28T07:57:25;103237.59;;;2.18;88.09
67840;BME280;54636;51.684;5.142;2023-02-28T07:59:50;103226.13;;;2.21;87.27
67840;BME280;54636;51.684;5.142;2023-02-28T08:02:17;103230.50;;;2.33;86.90
67840;BME280;54636;51.684;5.142;2023-02-28T08:04:43;103223.28;;;2.37;82.87
67840;BME280;54636;51.684;5.142;2023-02-28T08:07:09;103223.00;;;2.46;78.29
67840;BME280;54636;51.684;5.142;2023-02-28T08:09:38;103230.03;;;2.57;77.02
67840;BME280;54636;51.684;5.142;2023-02-28T08:12:04;103223.22;;;2.67;77.91
67840;BME280;54636;51.684;5.142;2023-02-28T08:14:30;103228.38;;;2.83;74.82
67840;BME280;54636;51.684;5.142;2023-02-28T08:16:55;103232.69;;;2.91;74.49
67840;BME280;54636;51.684;5.142;2023-02-28T08:19:20;103241.09;;;2.89;73.36
67840;BME280;54636;51.684;5.142;2023-02-28T08:21:46;103237.41;;;3.01;72.16
67840;BME280;54636;51.684;5.142;2023-02-28T08:24:11;103230.28;;;3.19;69.26
67840;BME280;54636;51.684;5.142;2023-02-28T08:26:37;103229.88;;;3.17;66.33
67840;BME280;54636;51.684;5.142;2023-02-28T08:29:02;103229.91;;;3.21;66.07
67840;BME280;54636;51.684;5.142;2023-02-28T08:31:27;103234.69;;;3.42;64.39
67840;BME280;54636;51.684;5.142;2023-02-28T08:33:53;103230.09;;;3.46;63.32
67840;BME280;54636;51.684;5.142;2023-02-28T08:36:20;103235.88;;;3.48;64.09
67840;BME280;54636;51.684;5.142;2023-02-28T08:38:46;103234.41;;;3.54;63.23
67840;BME280;54636;51.684;5.142;2023-02-28T08:41:12;103234.44;;;3.61;63.06
67840;BME280;54636;51.684;5.142;2023-02-28T08:43:39;103225.34;;;3.76;61.90
67840;BME280;54636;51.684;5.142;2023-02-28T08:46:05;103229.59;;;3.81;60.36
67840;BME280;54636;51.684;5.142;2023-02-28T08:48:32;103216.97;;;3.92;59.95
67840;BME280;54636;51.684;5.142;2023-02-28T08:51:13;103212.31;;;3.78;57.02
67840;BME280;54636;51.684;5.142;2023-02-28T08:53:41;103212.94;;;3.57;55.50
67840;BME280;54636;51.684;5.142;2023-02-28T08:56:13;103211.53;;;3.23;53.80
67840;BME280;54636;51.684;5.142;2023-02-28T08:58:39;103224.03;;;3.08;54.76
67840;BME280;54636;51.684;5.142;2023-02-28T09:03:38;103228.78;;;3.22;54.04
67840;BME280;54636;51.684;5.142;2023-02-28T09:06:04;103236.63;;;3.45;53.71
67840;BME280;54636;51.684;5.142;2023-02-28T09:08:30;103236.72;;;3.55;53.13
67840;BME280;54636;51.684;5.142;2023-02-28T09:10:56;103223.03;;;3.75;54.97
67840;BME280;54636;51.684;5.142;2023-02-28T09:13:26;103220.09;;;4.01;53.38
67840;BME280;54636;51.684;5.142;2023-02-28T09:15:52;103218.53;;;3.96;52.23
67840;BME280;54636;51.684;5.142;2023-02-28T09:18:18;103224.81;;;4.18;55.02
67840;BME280;54636;51.684;5.142;2023-02-28T09:20:44;103218.44;;;4.51;51.96
67840;BME280;54636;51.684;5.142;2023-02-28T09:23:11;103223.50;;;4.85;51.55
67840;BME280;54636;51.684;5.142;2023-02-28T09:25:37;103227.03;;;5.10;53.14
67840;BME280;54636;51.684;5.142;2023-02-28T09:28:04;103226.66;;;5.19;47.97
67840;BME280;54636;51.684;5.142;2023-02-28T09:30:29;103225.06;;;4.96;47.52
67840;BME280;54636;51.684;5.142;2023-02-28T09:32:55;103230.41;;;4.79;49.04
67840;BME280;54636;51.684;5.142;2023-02-28T09:35:23;103236.94;;;4.74;48.54
67840;BME280;54636;51.684;5.142;2023-02-28T09:37:50;103233.44;;;4.59;47.70
67840;BME280;54636;51.684;5.142;2023-02-28T09:40:18;103235.06;;;4.92;46.17
67840;BME280;54636;51.684;5.142;2023-02-28T09:42:47;103230.75;;;4.63;46.66
67840;BME280;54636;51.684;5.142;2023-02-28T09:47:48;103232.31;;;4.71;45.84
67840;BME280;54636;51.684;5.142;2023-02-28T09:52:50;103232.69;;;4.66;45.59
67840;BME280;54636;51.684;5.142;2023-02-28T09:55:20;103239.16;;;4.47;46.07
67840;BME280;54636;51.684;5.142;2023-02-28T09:57:48;103234.56;;;4.51;47.04
67840;BME280;54636;51.684;5.142;2023-02-28T10:05:33;103228.03;;;4.49;47.36
67840;BME280;54636;51.684;5.142;2023-02-28T10:08:13;103227.69;;;4.68;46.59
67840;BME280;54636;51.684;5.142;2023-02-28T10:10:45;103233.09;;;4.72;46.97
67840;BME280;54636;51.684;5.142;2023-02-28T10:15:47;103227.75;;;4.89;45.32
67840;BME280;54636;51.684;5.142;2023-02-28T10:18:21;103222.00;;;4.98;44.86
67840;BME280;54636;51.684;5.142;2023-02-28T10:20:48;103225.00;;;4.72;45.11
67840;BME280;54636;51.684;5.142;2023-02-28T10:23:22;103230.38;;;4.68;44.78
67840;BME280;54636;51.684;5.142;2023-02-28T10:25:57;103216.94;;;4.75;46.44
67840;BME280;54636;51.684;5.142;2023-02-28T10:28:24;103219.28;;;4.91;45.58
67840;BME280;54636;51.684;5.142;2023-02-28T10:30:52;103213.53;;;4.96;45.35
67840;BME280;54636;51.684;5.142;2023-02-28T10:35:46;103217.41;;;5.09;44.49
67840;BME280;54636;51.684;5.142;2023-02-28T10:38:17;103212.78;;;5.42;42.64
67840;BME280;54636;51.684;5.142;2023-02-28T10:40:43;103210.06;;;5.38;43.14
67840;BME280;54636;51.684;5.142;2023-02-28T10:53:27;103215.09;;;5.18;44.03
67840;BME280;54636;51.684;5.142;2023-02-28T10:58:57;103207.00;;;5.18;44.67
67840;BME280;54636;51.684;5.142;2023-02-28T11:03:58;103193.91;;;5.27;44.90
67840;BME280;54636;51.684;5.142;2023-02-28T11:06:29;103200.44;;;5.69;43.31
67840;BME280;54636;51.684;5.142;2023-02-28T11:08:58;103183.88;;;5.63;42.92
67840;BME280;54636;51.684;5.142;2023-02-28T11:11:26;103176.16;;;5.66;41.89
67840;BME280;54636;51.684;5.142;2023-02-28T11:13:55;103185.03;;;5.59;41.86
67840;BME280;54636;51.684;5.142;2023-02-28T11:16:21;103169.25;;;5.50;42.21
67840;BME280;54636;51.684;5.142;2023-02-28T11:18:55;103178.06;;;5.76;42.42
67840;BME280;54636;51.684;5.142;2023-02-28T11:21:28;103178.84;;;5.76;42.89
67840;BME280;54636;51.684;5.142;2023-02-28T11:24:04;103185.41;;;5.61;43.17
67840;BME280;54636;51.684;5.142;2023-02-28T11:26:43;103183.88;;;5.53;43.42
67840;BME280;54636;51.684;5.142;2023-02-28T11:29:30;103181.94;;;5.64;44.83
67840;BME280;54636;51.684;5.142;2023-02-28T11:34:37;103178.84;;;5.69;43.29
67840;BME280;54636;51.684;5.142;2023-02-28T11:37:04;103179.19;;;5.89;43.14
67840;BME280;54636;51.684;5.142;2023-02-28T11:39:32;103164.91;;;6.03;43.01
67840;BME280;54636;51.684;5.142;2023-02-28T11:47:17;103171.13;;;5.75;42.26
67840;BME280;54636;51.684;5.142;2023-02-28T11:49:56;103172.69;;;5.76;41.48
67840;BME280;54636;51.684;5.142;2023-02-28T11:52:37;103161.91;;;5.65;41.75
67840;BME280;54636;51.684;5.142;2023-02-28T11:57:35;103163.47;;;5.52;41.36
67840;BME280;54636;51.684;5.142;2023-02-28T12:00:10;103158.78;;;5.81;41.56
67840;BME280;54636;51.684;5.142;2023-02-28T12:05:34;103145.31;;;5.77;41.48
67840;BME280;54636;51.684;5.142;2023-02-28T12:10:57;103154.94;;;5.78;40.01
67840;BME280;54636;51.684;5.142;2023-02-28T12:13:24;103169.25;;;5.57;40.45
67840;BME280;54636;51.684;5.142;2023-02-28T12:24:09;103139.09;;;5.87;40.31
67840;BME280;54636;51.684;5.142;2023-02-28T12:26:46;103140.72;;;5.67;40.56
67840;BME280;54636;51.684;5.142;2023-02-28T12:29:27;103144.56;;;5.73;39.59
67840;BME280;54636;51.684;5.142;2023-02-28T12:32:13;103132.66;;;5.56;40.48
67840;BME280;54636;51.684;5.142;2023-02-28T12:34:45;103136.13;;;5.53;41.07
67840;BME280;54636;51.684;5.142;2023-02-28T12:37:40;103134.19;;;5.57;40.49
67840;BME280;54636;51.684;5.142;2023-02-28T12:40:16;103126.91;;;5.44;40.66
67840;BME280;54636;51.684;5.142;2023-02-28T12:42:46;103113.75;;;5.74;41.35
67840;BME280;54636;51.684;5.142;2023-02-28T12:45:18;103128.41;;;5.59;40.83
67840;BME280;54636;51.684;5.142;2023-02-28T12:47:47;103139.19;;;5.59;39.96
67840;BME280;54636;51.684;5.142;2023-02-28T12:50:14;103135.75;;;5.58;41.21
67840;BME280;54636;51.684;5.142;2023-02-28T12:55:23;103130.00;;;5.42;41.50
67840;BME280;54636;51.684;5.142;2023-02-28T12:57:56;103127.28;;;5.39;40.91
67840;BME280;54636;51.684;5.142;2023-02-28T13:00:30;103124.22;;;5.44;41.21
67840;BME280;54636;51.684;5.142;2023-02-28T13:05:44;103107.28;;;5.36;41.64
67840;BME280;54636;51.684;5.142;2023-02-28T13:11:46;103104.97;;;5.31;41.48
67840;BME280;54636;51.684;5.142;2023-02-28T13:14:24;103093.06;;;5.25;41.73
67840;BME280;54636;51.684;5.142;2023-02-28T13:19:39;103076.44;;;5.55;42.74
67840;BME280;54636;51.684;5.142;2023-02-28T13:22:17;103090.69;;;5.48;41.79
67840;BME280;54636;51.684;5.142;2023-02-28T13:24:49;103084.16;;;5.49;41.83
67840;BME280;54636;51.684;5.142;2023-02-28T13:29:42;103074.16;;;5.43;42.19
67840;BME280;54636;51.684;5.142;2023-02-28T13:34:41;103074.91;;;5.47;41.57
67840;BME280;54636;51.684;5.142;2023-02-28T13:42:33;103081.47;;;5.49;41.73
67840;BME280;54636;51.684;5.142;2023-02-28T13:47:52;103072.22;;;5.43;41.36
67840;BME280;54636;51.684;5.142;2023-02-28T13:50:24;103066.09;;;5.39;42.80
67840;BME280;54636;51.684;5.142;2023-02-28T13:55:49;103069.53;;;5.43;41.44
67840;BME280;54636;51.684;5.142;2023-02-28T13:58:46;103064.16;;;5.33;42.26
67840;BME280;54636;51.684;5.142;2023-02-28T14:11:37;103065.31;;;5.35;41.58
67840;BME280;54636;51.684;5.142;2023-02-28T14:14:04;103061.09;;;5.38;42.33
67840;BME280;54636;51.684;5.142;2023-02-28T14:16:40;103054.19;;;5.26;43.00
67840;BME280;54636;51.684;5.142;2023-02-28T14:19:27;103060.28;;;5.44;42.20
67840;BME280;54636;51.684;5.142;2023-02-28T14:25:04;103034.22;;;5.16;42.42
67840;BME280;54636;51.684;5.142;2023-02-28T14:30:40;103064.94;;;5.33;43.71
67840;BME280;54636;51.684;5.142;2023-02-28T14:33:35;103059.91;;;5.42;43.76
67840;BME280;54636;51.684;5.142;2023-02-28T14:36:21;103045.31;;;5.36;42.43
67840;BME280;54636;51.684;5.142;2023-02-28T14:38:52;103057.63;;;5.34;42.89
67840;BME280;54636;51.684;5.142;2023-02-28T14:44:00;103051.50;;;5.22;42.86
67840;BME280;54636;51.684;5.142;2023-02-28T14:46:46;103050.72;;;5.22;44.35
67840;BME280;54636;51.684;5.142;2023-02-28T14:49:32;103051.09;;;5.27;43.38
67840;BME280;54636;51.684;5.142;2023-02-28T14:52:06;103046.09;;;5.26;42.71
67840;BME280;54636;51.684;5.142;2023-02-28T14:54:38;103038.78;;;5.26;41.93
67840;BME280;54636;51.684;5.142;2023-02-28T14:57:04;103029.91;;;5.33;42.26
67840;BME280;54636;51.684;5.142;2023-02-28T14:59:33;103045.31;;;5.33;42.83
67840;BME280;54636;51.684;5.142;2023-02-28T15:02:23;103038.41;;;5.21;42.33
67840;BME280;54636;51.684;5.142;2023-02-28T15:04:53;103048.44;;;5.17;42.23
67840;BME280;54636;51.684;5.142;2023-02-28T15:07:19;103038.06;;;5.15;43.17
67840;BME280;54636;51.684;5.142;2023-02-28T15:09:44;103043.84;;;5.10;43.16
67840;BME280;54636;51.684;5.142;2023-02-28T15:12:14;103046.91;;;5.12;44.06
67840;BME280;54636;51.684;5.142;2023-02-28T15:14:42;103048.06;;;5.18;44.10
67840;BME280;54636;51.684;5.142;2023-02-28T15:17:17;103040.78;;;5.05;42.92
67840;BME280;54636;51.684;5.142;2023-02-28T15:19:48;103038.09;;;4.97;43.56
67840;BME280;54636;51.684;5.142;2023-02-28T15:22:18;103041.53;;;5.02;43.15
67840;BME280;54636;51.684;5.142;2023-02-28T15:24:50;103041.94;;;5.04;43.57
67840;BME280;54636;51.684;5.142;2023-02-28T15:27:29;103050.41;;;5.02;42.73
67840;BME280;54636;51.684;5.142;2023-02-28T15:29:59;103051.94;;;5.07;41.83